KRYN

Ryan Field Airport

Tucson, Arizona, USA
METAR KRYN 200045Z 21007KT 10SM CLR 22/M11 A2992
Observed Flight Rules
Jan-20 @ 00:45 UTC (39 minutes ago) Visual Flight Rules
Wind Visibility Clouds
210° at 7 knots 10 miles
  • Clear skies
Temperatures Readings
Current 22°C / 72°F
Dewpoint -11°C / 12°F
Humidity 10%
Altimeter 29.92" Hg
Pressure 1013 hPa
Elevation 737
METAR KRYN 200045Z 21007KT 10SM CLR 22/M11 A2992
Observed Flight Rules
Jan-20 @ 00:45 UTC
(39 minutes ago)
VFR
Wind Visibility
210° at 7 knots 10 miles
Clouds
  • Clear skies
Temperature Dewpoint
22°C / 72°F -11°C / 12°F
Humidity Altimeter Pressure
10% 29.92" Hg 1013 hPa